Time;durP1;ratioP1;P1;durP2;ratioP2;P2;SDS_P1;SDS_P2;PMS_P1;PMS_P2;Temp;Humidity;BMP_temperature;BMP_pressure;BME280_temperature;BME280_humidity;BME280_pressure;Samples;Min_cycle;Max_cycle;Signal;HPM_P1;HPM_P2
2023/07/27 00:01:07;;;;;;;1.75;0.90;;;21.30;71.90;;;;;;4951803;29;20024;-84
2023/07/27 00:03:33;;;;;;;3.35;1.33;;;21.20;72.20;;;;;;4955323;29;20082;-85
2023/07/27 00:05:58;;;;;;;1.85;1.45;;;21.20;72.20;;;;;;4957431;28;20035;-83
2023/07/27 00:08:24;;;;;;;1.95;1.33;;;21.10;72.60;;;;;;4955704;29;20087;-84
2023/07/27 00:10:50;;;;;;;0.80;0.80;;;21.10;72.40;;;;;;4936137;29;20066;-84
2023/07/27 00:13:17;;;;;;;1.25;1.15;;;21.10;71.80;;;;;;4936962;29;20036;-84
2023/07/27 00:15:42;;;;;;;1.63;1.33;;;21.10;71.80;;;;;;4936357;29;20571;-83
2023/07/27 00:18:08;;;;;;;2.08;1.13;;;21.10;71.60;;;;;;4936833;29;20063;-84
2023/07/27 00:20:34;;;;;;;1.73;1.15;;;21.10;71.70;;;;;;4935681;29;20114;-84
2023/07/27 00:23:00;;;;;;;5.25;1.17;;;21.00;71.70;;;;;;4951669;29;20483;-84
2023/07/27 00:25:25;;;;;;;1.40;1.13;;;21.00;71.70;;;;;;4936877;29;20024;-84
2023/07/27 00:27:51;;;;;;;1.23;1.13;;;20.90;71.50;;;;;;4935735;29;20054;-85
2023/07/27 00:30:17;;;;;;;3.28;1.20;;;20.90;71.30;;;;;;4935119;29;20095;-87
2023/07/27 00:32:43;;;;;;;1.95;1.50;;;20.90;71.00;;;;;;4935493;29;20526;-84
2023/07/27 00:35:09;;;;;;;3.67;1.10;;;20.90;71.20;;;;;;4948181;29;20027;-84
2023/07/27 00:37:34;;;;;;;4.38;1.00;;;20.90;71.40;;;;;;4945119;29;20105;-84
2023/07/27 00:40:00;;;;;;;3.05;1.30;;;20.80;71.90;;;;;;4956077;29;20378;-85
2023/07/27 00:42:27;;;;;;;1.60;1.15;;;20.80;71.80;;;;;;4952919;29;20087;-84
2023/07/27 00:44:53;;;;;;;2.27;1.17;;;20.70;72.10;;;;;;4952530;29;20027;-85
2023/07/27 00:47:18;;;;;;;4.47;1.00;;;20.70;71.90;;;;;;4935393;29;20099;-84
2023/07/27 00:49:44;;;;;;;1.95;1.00;;;20.70;71.80;;;;;;4954181;29;20035;-85
2023/07/27 00:52:10;;;;;;;1.75;1.25;;;20.70;72.10;;;;;;4953637;29;20050;-84
2023/07/27 00:54:36;;;;;;;1.20;1.10;;;20.70;72.00;;;;;;4953483;29;20047;-84
2023/07/27 00:57:03;;;;;;;4.57;1.00;;;20.60;71.70;;;;;;4953520;29;20039;-85
2023/07/27 00:59:29;;;;;;;2.60;1.05;;;20.60;71.60;;;;;;4934885;29;20034;-85
2023/07/27 01:01:56;;;;;;;1.23;1.05;;;20.60;71.80;;;;;;4967930;28;20051;-84
2023/07/27 01:04:22;;;;;;;2.30;1.20;;;20.60;71.80;;;;;;4951726;28;20035;-86
2023/07/27 01:06:48;;;;;;;1.95;0.98;;;20.60;71.80;;;;;;4941717;29;20023;-84
2023/07/27 01:09:14;;;;;;;1.27;1.10;;;20.60;71.60;;;;;;4954914;29;20502;-84
2023/07/27 01:11:48;;;;;;;2.28;1.30;;;20.50;71.70;;;;;;4946322;29;20035;-84
2023/07/27 01:14:50;;;;;;;2.85;1.13;;;20.50;71.50;;;;;;4960068;28;20527;-85
2023/07/27 01:17:21;;;;;;;4.05;1.10;;;20.50;71.70;;;;;;4921196;29;20525;-85
2023/07/27 01:20:09;;;;;;;2.78;1.08;;;20.50;71.30;;;;;;4952261;29;20032;-85
2023/07/27 01:22:47;;;;;;;;;;;20.40;71.50;;;;;;4955296;29;20035;-84
2023/07/27 01:25:51;;;;;;;2.00;1.10;;;20.30;71.90;;;;;;4959305;29;19910;-84
2023/07/27 01:28:19;;;;;;;2.30;0.95;;;20.30;71.70;;;;;;4956897;29;20110;-85
2023/07/27 01:31:09;;;;;;;2.47;1.35;;;20.30;71.00;;;;;;4958758;28;20035;-84
2023/07/27 01:33:48;;;;;;;4.03;1.25;;;20.30;70.80;;;;;;4970193;28;20039;-85
2023/07/27 01:36:21;;;;;;;3.10;0.90;;;20.30;71.20;;;;;;4955157;29;20517;-84
2023/07/27 01:38:49;;;;;;;3.25;0.98;;;20.30;70.90;;;;;;4939162;29;20039;-85
2023/07/27 01:41:16;;;;;;;2.60;1.00;;;20.30;70.90;;;;;;4941388;29;20027;-84
2023/07/27 01:43:44;;;;;;;1.27;1.08;;;20.30;70.80;;;;;;4958011;29;20122;-85
2023/07/27 01:46:11;;;;;;;1.25;1.00;;;20.30;71.20;;;;;;4959558;28;20494;-84
2023/07/27 01:48:40;;;;;;;1.27;0.88;;;20.30;71.30;;;;;;4973904;28;20034;-84
2023/07/27 01:51:08;;;;;;;1.65;1.13;;;20.30;71.50;;;;;;4957207;29;20379;-84
2023/07/27 01:53:35;;;;;;;1.73;1.45;;;20.20;71.30;;;;;;4957478;29;20034;-84
2023/07/27 01:56:03;;;;;;;1.73;0.80;;;20.20;71.30;;;;;;4957702;29;20031;-84
2023/07/27 01:58:31;;;;;;;2.70;1.00;;;20.20;71.70;;;;;;4957440;28;20031;-84
2023/07/27 02:00:57;;;;;;;;;;;20.20;71.70;;;;;;4958349;29;20028;-84
2023/07/27 02:03:24;;;;;;;2.60;1.00;;;20.10;71.60;;;;;;4958201;29;19970;-84
2023/07/27 02:05:50;;;;;;;;;;;20.00;71.70;;;;;;4957605;29;20031;-83
2023/07/27 02:08:17;;;;;;;3.25;1.33;;;20.00;71.90;;;;;;4957276;29;20361;-84
2023/07/27 02:10:47;;;;;;;0.85;0.77;;;20.00;71.60;;;;;;4955764;29;20039;-84
2023/07/27 02:13:45;;;;;;;3.33;1.40;;;20.00;71.80;;;;;;4956835;29;20090;-84
2023/07/27 02:16:33;;;;;;;4.00;0.95;;;20.00;72.40;;;;;;4946304;28;20031;-85
2023/07/27 02:19:01;;;;;;;3.50;1.52;;;19.90;72.30;;;;;;4938755;29;20127;-84
2023/07/27 02:21:30;;;;;;;1.85;0.90;;;19.90;72.40;;;;;;4957167;29;20031;-85
2023/07/27 02:23:57;;;;;;;2.10;1.40;;;19.90;72.70;;;;;;4957289;29;20102;-84
2023/07/27 02:26:24;;;;;;;3.97;1.50;;;19.90;73.30;;;;;;4956520;29;20401;-84
2023/07/27 02:28:50;;;;;;;3.75;1.35;;;19.80;73.10;;;;;;4956822;29;20090;-84
2023/07/27 02:31:17;;;;;;;2.40;1.20;;;19.80;73.10;;;;;;4953813;29;20052;-83
2023/07/27 02:33:43;;;;;;;3.42;1.00;;;19.80;73.40;;;;;;4940712;29;20042;-84
2023/07/27 02:36:09;;;;;;;3.57;1.73;;;19.80;73.10;;;;;;4938058;29;20114;-83
2023/07/27 02:38:36;;;;;;;;;;;19.80;73.30;;;;;;4930430;29;20279;-83
2023/07/27 02:41:02;;;;;;;3.90;1.40;;;19.70;74.10;;;;;;4954682;29;19914;-84
2023/07/27 02:43:28;;;;;;;3.45;1.48;;;19.70;73.60;;;;;;4953542;29;20107;-84
2023/07/27 02:45:59;;;;;;;1.80;1.65;;;19.70;73.40;;;;;;4938007;29;20115;-83
2023/07/27 02:48:25;;;;;;;5.00;1.58;;;19.70;73.60;;;;;;4944890;29;20032;-83
2023/07/27 02:50:52;;;;;;;1.75;1.35;;;19.60;73.70;;;;;;4937982;29;20031;-84
2023/07/27 02:53:19;;;;;;;2.55;1.40;;;19.60;73.60;;;;;;4940492;29;20031;-83
2023/07/27 02:55:58;;;;;;;3.58;1.52;;;19.60;73.60;;;;;;4956712;29;20034;-84
2023/07/27 02:58:26;;;;;;;2.65;1.25;;;19.60;73.90;;;;;;4953790;29;20032;-84
2023/07/27 03:00:55;;;;;;;6.07;2.13;;;19.50;74.20;;;;;;4953189;29;20094;-85
2023/07/27 03:03:22;;;;;;;3.60;1.50;;;19.50;74.30;;;;;;4955068;29;20035;-85
2023/07/27 03:06:02;;;;;;;2.85;1.23;;;19.50;74.20;;;;;;4956334;29;20482;-83
2023/07/27 03:08:30;;;;;;;4.65;1.30;;;19.50;75.00;;;;;;4956387;29;20040;-85
2023/07/27 03:11:04;;;;;;;1.73;1.35;;;19.40;75.20;;;;;;4957224;28;20038;-83
2023/07/27 03:13:31;;;;;;;2.90;1.58;;;19.40;74.80;;;;;;4955983;29;20094;-85
2023/07/27 03:15:57;;;;;;;4.15;1.85;;;19.40;74.90;;;;;;4956549;29;20035;-85
2023/07/27 03:18:23;;;;;;;2.92;1.40;;;19.30;75.00;;;;;;4956245;29;20027;-83
2023/07/27 03:20:50;;;;;;;1.52;1.30;;;19.30;75.10;;;;;;4956376;29;20046;-83
2023/07/27 03:23:16;;;;;;;4.22;1.55;;;19.30;75.30;;;;;;4956566;29;20034;-84
2023/07/27 03:25:42;;;;;;;1.70;1.33;;;19.30;75.40;;;;;;4957103;29;20509;-84
2023/07/27 03:28:08;;;;;;;2.15;1.45;;;19.30;75.30;;;;;;4953082;28;20031;-85
2023/07/27 03:30:35;;;;;;;1.70;1.23;;;19.20;75.30;;;;;;4951157;29;20078;-85
2023/07/27 03:33:02;;;;;;;2.30;1.02;;;19.30;75.20;;;;;;4953652;29;20027;-85
2023/07/27 03:35:29;;;;;;;5.03;1.85;;;19.20;75.20;;;;;;4941057;29;20038;-86
2023/07/27 03:37:54;;;;;;;2.35;1.20;;;19.20;75.30;;;;;;4952513;29;20032;-84
2023/07/27 03:40:21;;;;;;;1.92;1.00;;;19.20;75.30;;;;;;4939019;29;20038;-83
2023/07/27 03:42:47;;;;;;;2.25;1.02;;;19.20;75.70;;;;;;4950243;29;20059;-84
2023/07/27 03:45:17;;;;;;;3.45;1.27;;;19.20;75.50;;;;;;4955474;29;20034;-83
2023/07/27 03:47:45;;;;;;;3.20;1.38;;;19.10;75.90;;;;;;4940605;29;20043;-82
2023/07/27 03:50:12;;;;;;;3.08;1.40;;;19.10;75.80;;;;;;4946587;29;20038;-83
2023/07/27 03:52:38;;;;;;;6.45;1.83;;;19.10;75.70;;;;;;4956032;29;20055;-84
2023/07/27 03:55:09;;;;;;;2.42;1.75;;;19.10;75.70;;;;;;4955788;29;20039;-83
2023/07/27 03:57:35;;;;;;;3.90;1.20;;;19.20;75.50;;;;;;4940295;29;20031;-84
2023/07/27 04:00:02;;;;;;;3.08;1.25;;;19.10;75.30;;;;;;4955900;29;20024;-84
2023/07/27 04:02:28;;;;;;;3.53;1.33;;;19.10;75.30;;;;;;4939743;29;20038;-84
2023/07/27 04:04:54;;;;;;;2.20;1.58;;;19.10;75.30;;;;;;4957222;28;20029;-84
2023/07/27 04:07:21;;;;;;;3.58;1.42;;;19.00;75.60;;;;;;4955874;29;20425;-83
2023/07/27 04:09:47;;;;;;;2.63;1.77;;;19.00;75.90;;;;;;4955575;29;20035;-83
2023/07/27 04:12:13;;;;;;;3.47;1.20;;;19.00;75.90;;;;;;4955837;29;20039;-83
2023/07/27 04:14:39;;;;;;;1.58;1.30;;;19.00;75.70;;;;;;4957893;28;20024;-84
2023/07/27 04:17:05;;;;;;;2.40;1.10;;;19.00;75.50;;;;;;4955406;29;20086;-84
2023/07/27 04:19:33;;;;;;;1.93;1.17;;;19.00;75.50;;;;;;4957554;28;20499;-84
2023/07/27 04:21:59;;;;;;;2.10;1.58;;;19.00;75.50;;;;;;4956120;29;20064;-85
2023/07/27 04:24:25;;;;;;;2.55;1.70;;;19.00;75.30;;;;;;4956794;28;20108;-85
2023/07/27 04:26:51;;;;;;;1.40;1.10;;;19.00;75.50;;;;;;4959477;28;20027;-83
2023/07/27 04:29:17;;;;;;;3.70;1.30;;;19.00;75.80;;;;;;4958935;29;20434;-84
2023/07/27 04:31:43;;;;;;;3.47;1.30;;;19.00;75.60;;;;;;4940080;29;20089;-83
2023/07/27 04:34:08;;;;;;;3.63;1.50;;;19.00;75.70;;;;;;4955859;29;20402;-84
2023/07/27 04:36:34;;;;;;;1.90;1.15;;;19.00;75.60;;;;;;4939639;29;20028;-84
2023/07/27 04:39:00;;;;;;;2.05;1.02;;;19.00;75.20;;;;;;4957834;28;20497;-85
2023/07/27 04:41:26;;;;;;;2.72;1.27;;;19.00;75.30;;;;;;4960907;29;20039;-84
2023/07/27 04:43:52;;;;;;;7.22;1.52;;;19.10;75.20;;;;;;4959489;28;20027;-83
2023/07/27 04:46:17;;;;;;;1.52;1.30;;;19.10;75.50;;;;;;4959229;29;20031;-83
2023/07/27 04:48:43;;;;;;;2.70;1.15;;;19.10;75.50;;;;;;4959614;29;20039;-84
2023/07/27 04:51:09;;;;;;;1.20;1.00;;;19.10;75.60;;;;;;4958855;29;20490;-85
2023/07/27 04:53:35;;;;;;;1.95;1.30;;;19.10;75.50;;;;;;4961641;28;20027;-83
2023/07/27 04:56:01;;;;;;;2.85;1.45;;;19.10;75.40;;;;;;4959319;28;20497;-84
2023/07/27 04:58:27;;;;;;;1.80;1.20;;;19.10;75.40;;;;;;4942928;29;20119;-83
2023/07/27 05:00:57;;;;;;;1.50;1.10;;;19.10;75.90;;;;;;4960038;29;20035;-85
2023/07/27 05:03:23;;;;;;;2.78;1.60;;;19.20;75.80;;;;;;4958314;28;20032;-83
2023/07/27 05:05:52;;;;;;;1.98;1.10;;;19.20;75.50;;;;;;4957934;28;20054;-84
2023/07/27 05:08:18;;;;;;;6.43;1.10;;;19.20;75.40;;;;;;4956975;29;20031;-84
2023/07/27 05:10:44;;;;;;;2.80;1.27;;;19.20;75.60;;;;;;4956955;29;20039;-84
2023/07/27 05:13:11;;;;;;;1.15;1.05;;;19.30;75.70;;;;;;4956374;29;20027;-83
2023/07/27 05:15:40;;;;;;;5.80;1.45;;;19.30;75.40;;;;;;4954466;29;20031;-81
2023/07/27 05:18:05;;;;;;;7.75;1.58;;;19.30;75.20;;;;;;4956526;29;20032;-82
2023/07/27 09:04:18;;;;;;;3.10;1.30;;;24.20;62.10;;;;;;4901587;29;20104;-80
2023/07/27 09:06:46;;;;;;;1.10;0.87;;;24.20;61.90;;;;;;4902748;29;20029;-80
2023/07/27 09:09:23;;;;;;;3.03;1.05;;;24.20;62.10;;;;;;4918667;29;20107;-80
2023/07/27 09:11:49;;;;;;;3.35;1.00;;;24.30;61.30;;;;;;4904513;29;20041;-80
2023/07/27 09:14:18;;;;;;;3.35;1.42;;;24.40;61.30;;;;;;4902323;29;20084;-80
2023/07/27 09:26:24;;;;;;;5.65;1.20;;;24.60;61.20;;;;;;5969667;23;20110;-81
2023/07/27 09:28:50;;;;;;;2.97;1.40;;;24.70;60.70;;;;;;4941393;29;20043;-81
2023/07/27 09:31:16;;;;;;;2.93;1.20;;;24.60;60.30;;;;;;4940270;29;20038;-81
2023/07/27 09:33:42;;;;;;;5.25;1.15;;;24.70;60.70;;;;;;4942565;29;20414;-81
2023/07/27 09:36:12;;;;;;;2.95;1.05;;;24.70;60.70;;;;;;4941313;29;20046;-81
2023/07/27 09:38:38;;;;;;;6.35;1.48;;;24.70;60.30;;;;;;4940855;29;20098;-81
2023/07/27 09:41:08;;;;;;;;;;;24.70;61.40;;;;;;4941361;29;20387;-81
2023/07/27 09:43:41;;;;;;;2.05;1.20;;;24.80;59.80;;;;;;4940619;29;19911;-81
2023/07/27 09:46:06;;;;;;;1.75;1.00;;;24.90;59.10;;;;;;4940697;29;20102;-81
2023/07/27 09:48:32;;;;;;;6.57;1.60;;;24.90;60.40;;;;;;4942118;29;20490;-81
2023/07/27 09:51:01;;;;;;;4.45;1.25;;;24.90;59.30;;;;;;4942692;29;20368;-81
2023/07/27 09:53:31;;;;;;;1.67;1.17;;;25.00;60.50;;;;;;4941749;29;20038;-81
2023/07/27 09:55:58;;;;;;;2.88;0.90;;;25.10;58.40;;;;;;4940390;29;20456;-81
2023/07/27 09:58:24;;;;;;;1.63;0.90;;;25.10;59.50;;;;;;4941432;29;20116;-81
2023/07/27 10:00:50;;;;;;;1.70;1.08;;;25.10;58.80;;;;;;4939955;29;20142;-81
2023/07/27 10:03:16;;;;;;;2.27;1.47;;;25.30;59.00;;;;;;4941299;29;20494;-81
2023/07/27 10:05:43;;;;;;;2.40;1.10;;;25.30;57.90;;;;;;4941550;29;20035;-81
2023/07/27 10:08:10;;;;;;;2.28;1.02;;;25.40;58.40;;;;;;4940083;29;20046;-81
2023/07/27 10:10:42;;;;;;;3.47;1.30;;;25.40;58.70;;;;;;4940982;29;20043;-81
2023/07/27 10:13:23;;;;;;;5.03;1.20;;;25.50;57.90;;;;;;4939173;29;20035;-81
2023/07/27 10:15:51;;;;;;;4.40;1.05;;;25.50;58.00;;;;;;4937209;29;20402;-81
2023/07/27 10:18:22;;;;;;;2.03;1.13;;;25.60;58.60;;;;;;4939568;29;20024;-81
2023/07/27 10:20:48;;;;;;;1.85;1.08;;;25.70;57.50;;;;;;4925795;29;20280;-81
2023/07/27 10:23:25;;;;;;;2.80;1.00;;;25.70;58.50;;;;;;4937782;29;20032;-81
2023/07/27 10:25:57;;;;;;;2.00;1.00;;;25.70;57.90;;;;;;4923239;29;20044;-81
2023/07/27 10:28:39;;;;;;;3.33;1.38;;;25.80;58.80;;;;;;4931597;29;20122;-81
2023/07/27 10:31:14;;;;;;;4.05;1.10;;;25.80;56.70;;;;;;4930113;29;20031;-81
2023/07/27 10:33:47;;;;;;;7.75;1.20;;;25.80;55.90;;;;;;4934796;29;20274;-81
2023/07/27 10:36:17;;;;;;;4.88;1.10;;;25.70;57.00;;;;;;4930936;29;20028;-84
2023/07/27 10:38:56;;;;;;;1.73;1.20;;;25.70;58.20;;;;;;4932636;29;20039;-81
2023/07/27 10:41:24;;;;;;;3.17;1.02;;;25.80;56.50;;;;;;4926541;29;20115;-81
2023/07/27 10:44:08;;;;;;;1.48;0.90;;;26.00;57.60;;;;;;4948713;29;20024;-82
2023/07/27 10:46:37;;;;;;;2.47;1.02;;;26.20;57.40;;;;;;4940007;29;20058;-81
2023/07/27 10:49:08;;;;;;;3.70;0.90;;;26.30;56.60;;;;;;4937888;29;20038;-81
2023/07/27 10:51:34;;;;;;;4.53;1.27;;;26.40;56.40;;;;;;4927469;29;20039;-82
2023/07/27 10:54:00;;;;;;;2.38;1.10;;;26.40;56.50;;;;;;4938981;29;20032;-81
2023/07/27 10:56:27;;;;;;;10.03;1.23;;;26.50;57.40;;;;;;4932442;29;20039;-81
2023/07/27 10:58:59;;;;;;;1.17;0.80;;;26.50;57.10;;;;;;4930731;29;20028;-80
2023/07/27 11:01:29;;;;;;;2.40;1.00;;;26.50;56.90;;;;;;4925722;29;20032;-82
2023/07/27 11:03:56;;;;;;;4.88;1.15;;;26.60;56.60;;;;;;4934501;29;20507;-80
2023/07/27 11:06:22;;;;;;;;;;;26.70;56.90;;;;;;4939722;29;20036;-82
2023/07/27 11:08:47;;;;;;;2.65;1.27;;;26.70;55.70;;;;;;4966618;29;19917;-82
2023/07/27 11:11:18;;;;;;;2.80;1.00;;;26.80;56.20;;;;;;4946134;29;20027;-82
2023/07/27 11:13:45;;;;;;;1.83;1.08;;;26.90;55.50;;;;;;4935371;29;20039;-82
2023/07/27 11:16:13;;;;;;;7.03;0.98;;;26.90;55.00;;;;;;4937083;29;20051;-82
2023/07/27 11:18:40;;;;;;;1.90;0.90;;;27.00;55.00;;;;;;4937866;29;20032;-82
2023/07/27 11:21:08;;;;;;;2.33;0.88;;;27.00;55.60;;;;;;4932490;29;20110;-81
2023/07/27 11:23:41;;;;;;;2.67;0.93;;;27.10;56.00;;;;;;4930614;29;20032;-82
2023/07/27 11:26:07;;;;;;;3.22;0.98;;;27.30;56.20;;;;;;4932916;29;20044;-82
2023/07/27 11:28:34;;;;;;;3.45;1.27;;;27.30;55.70;;;;;;4936163;29;20042;-82
2023/07/27 11:31:00;;;;;;;2.15;1.05;;;27.40;54.70;;;;;;4936744;29;20024;-82
2023/07/27 11:33:36;;;;;;;3.10;1.00;;;27.40;55.30;;;;;;4944664;29;20397;-81
2023/07/27 11:36:04;;;;;;;5.70;2.17;;;27.50;54.40;;;;;;4935353;29;20031;-84
2023/07/27 11:38:31;;;;;;;8.43;6.35;;;27.60;54.00;;;;;;4940394;28;20095;-83
2023/07/27 11:40:57;;;;;;;1.70;1.33;;;27.50;54.80;;;;;;4924668;29;20024;-82
2023/07/27 11:43:25;;;;;;;5.57;1.67;;;27.50;53.90;;;;;;4939266;29;20100;-81
2023/07/27 11:45:58;;;;;;;1.60;0.93;;;27.50;54.90;;;;;;4928548;29;20036;-78
2023/07/27 11:48:28;;;;;;;4.70;1.23;;;27.70;55.80;;;;;;4934460;29;20032;-79
2023/07/27 11:51:03;;;;;;;1.63;1.10;;;27.90;54.60;;;;;;4933258;29;20043;-79
2023/07/27 11:53:28;;;;;;;1.67;1.10;;;28.00;53.70;;;;;;4925960;29;20092;-79
2023/07/27 11:55:55;;;;;;;1.80;1.07;;;28.10;53.90;;;;;;4944688;29;20024;-79
2023/07/27 11:58:26;;;;;;;3.38;1.30;;;28.20;54.10;;;;;;4937478;29;20050;-78
2023/07/27 12:00:54;;;;;;;4.72;1.30;;;28.40;53.20;;;;;;4933667;29;20039;-78
2023/07/27 12:03:22;;;;;;;1.17;1.08;;;28.40;53.90;;;;;;4941197;29;20031;-79
2023/07/27 12:05:48;;;;;;;1.85;1.10;;;28.60;55.00;;;;;;4928168;29;20028;-79
2023/07/27 12:08:20;;;;;;;2.97;1.05;;;28.70;54.00;;;;;;4933210;29;20027;-79
2023/07/27 12:10:54;;;;;;;1.77;1.63;;;28.80;53.40;;;;;;4934957;29;20039;-78
2023/07/27 12:13:24;;;;;;;3.08;1.30;;;28.80;52.30;;;;;;4942901;29;20027;-79
2023/07/27 12:16:00;;;;;;;2.13;1.10;;;28.90;53.40;;;;;;4929579;29;20056;-79
2023/07/27 12:18:28;;;;;;;1.58;1.10;;;28.90;53.50;;;;;;4934520;29;20091;-79
2023/07/27 12:20:55;;;;;;;4.35;1.17;;;28.80;51.60;;;;;;4943922;29;20023;-79
2023/07/27 12:23:22;;;;;;;3.83;1.50;;;28.80;53.40;;;;;;4944504;29;20043;-79
2023/07/27 12:25:49;;;;;;;2.90;1.50;;;28.90;52.00;;;;;;4934269;29;20036;-79
2023/07/27 12:28:16;;;;;;;2.40;1.00;;;28.90;52.50;;;;;;4937343;29;20430;-81
2023/07/27 12:30:42;;;;;;;4.07;1.23;;;28.90;52.90;;;;;;4924707;29;20032;-81
2023/07/27 12:33:09;;;;;;;1.00;0.90;;;29.00;53.30;;;;;;4934282;29;20067;-82
2023/07/27 12:35:35;;;;;;;3.05;1.00;;;28.90;52.10;;;;;;4935763;29;20027;-82
2023/07/27 12:38:01;;;;;;;2.03;1.13;;;28.80;51.30;;;;;;4934852;29;20032;-82
2023/07/27 12:40:27;;;;;;;4.25;2.13;;;28.70;53.60;;;;;;4925064;29;20028;-81
2023/07/27 12:42:54;;;;;;;3.63;1.00;;;28.80;53.00;;;;;;4922420;29;20391;-82
2023/07/27 12:45:19;;;;;;;1.85;0.85;;;28.80;52.20;;;;;;4925759;29;20364;-82
2023/07/27 12:47:46;;;;;;;3.70;1.55;;;28.90;54.30;;;;;;4923777;29;20128;-82
2023/07/27 12:50:13;;;;;;;5.13;2.30;;;29.10;54.30;;;;;;4934193;29;20132;-82
2023/07/27 12:52:39;;;;;;;1.20;0.98;;;29.30;53.30;;;;;;4925972;29;20064;-81
2023/07/27 12:55:06;;;;;;;3.67;1.05;;;29.40;52.90;;;;;;4938560;29;20118;-82
2023/07/27 12:57:32;;;;;;;3.17;1.30;;;29.60;52.90;;;;;;4927673;29;20067;-82
2023/07/27 12:59:57;;;;;;;1.70;1.20;;;29.70;51.60;;;;;;4935452;29;20051;-82
2023/07/27 13:02:23;;;;;;;1.70;1.20;;;29.70;50.40;;;;;;4931368;29;20028;-82
2023/07/27 13:04:49;;;;;;;3.27;1.00;;;29.70;50.50;;;;;;4938260;29;20397;-82
2023/07/27 13:07:15;;;;;;;3.23;1.50;;;29.80;50.90;;;;;;4929710;29;20828;-82
2023/07/27 13:09:41;;;;;;;3.10;1.30;;;29.90;52.30;;;;;;4932056;29;20129;-82
2023/07/27 13:12:08;;;;;;;3.13;1.30;;;30.10;51.70;;;;;;4923428;29;20047;-82
2023/07/27 13:14:34;;;;;;;1.67;1.20;;;30.30;50.80;;;;;;4937210;29;20028;-82
2023/07/27 13:17:00;;;;;;;2.10;1.42;;;30.60;49.50;;;;;;4934926;29;20031;-82
2023/07/27 13:19:26;;;;;;;7.30;1.33;;;31.20;48.80;;;;;;4943190;29;20059;-82
2023/07/27 13:21:52;;;;;;;2.35;1.45;;;32.00;48.50;;;;;;4929976;29;20095;-82
2023/07/27 13:24:18;;;;;;;1.70;0.90;;;32.90;44.30;;;;;;4924180;29;20059;-85
2023/07/27 13:26:44;;;;;;;1.17;1.00;;;34.00;43.70;;;;;;4946993;28;20027;-84
2023/07/27 13:29:11;;;;;;;4.18;1.10;;;34.90;43.30;;;;;;4937718;29;20036;-83
2023/07/27 13:31:37;;;;;;;5.35;1.60;;;35.90;42.10;;;;;;4928233;29;20032;-82
2023/07/27 13:34:03;;;;;;;2.20;1.75;;;36.80;40.80;;;;;;4924707;29;20034;-83
2023/07/27 13:36:29;;;;;;;3.88;3.20;;;37.60;38.30;;;;;;4925614;29;20461;-85
2023/07/27 13:38:55;;;;;;;9.38;4.95;;;38.40;38.10;;;;;;4951409;28;20474;-86
2023/07/27 13:41:20;;;;;;;1.73;1.27;;;39.00;36.80;;;;;;4953347;28;20059;-82
2023/07/27 13:43:46;;;;;;;;;;;39.60;35.90;;;;;;4912356;29;20096;-82
2023/07/27 13:46:12;;;;;;;1.35;1.20;;;40.00;38.70;;;;;;4944886;29;19915;-82
2023/07/27 13:48:38;;;;;;;;;;;40.60;35.40;;;;;;4938714;29;20464;-82
2023/07/27 13:51:03;;;;;;;2.35;1.33;;;41.00;36.80;;;;;;4940550;29;19918;-83
2023/07/27 13:53:29;;;;;;;3.45;1.25;;;41.60;34.00;;;;;;4922516;29;20403;-83
2023/07/27 13:55:55;;;;;;;3.60;1.40;;;42.10;33.30;;;;;;4941983;29;20031;-83
2023/07/27 13:58:21;;;;;;;3.33;1.83;;;42.70;32.70;;;;;;4942875;29;20036;-82
2023/07/27 14:00:47;;;;;;;6.38;1.67;;;43.30;32.70;;;;;;4941716;29;20024;-82
2023/07/27 14:03:13;;;;;;;2.40;1.45;;;43.60;31.70;;;;;;4923514;29;20438;-82
2023/07/27 14:05:39;;;;;;;5.07;1.40;;;43.80;32.50;;;;;;4925071;29;20047;-84
2023/07/27 14:08:05;;;;;;;1.40;1.30;;;44.20;32.30;;;;;;4940693;29;20020;-85
2023/07/27 14:10:31;;;;;;;1.45;1.30;;;44.50;30.80;;;;;;4929516;29;20042;-86
2023/07/27 14:12:57;;;;;;;1.50;1.40;;;44.50;31.10;;;;;;4921394;29;20024;-84
2023/07/27 14:15:23;;;;;;;4.15;1.42;;;44.90;31.20;;;;;;4940255;29;20066;-84
2023/07/27 14:17:48;;;;;;;2.78;1.40;;;45.10;30.30;;;;;;4924814;29;20028;-85
2023/07/27 14:20:14;;;;;;;2.60;1.67;;;45.20;30.60;;;;;;4924833;29;20032;-85
2023/07/27 14:22:40;;;;;;;4.53;1.52;;;45.50;30.70;;;;;;4917973;29;20440;-85
2023/07/27 14:25:07;;;;;;;1.58;1.48;;;45.70;29.60;;;;;;4930949;29;20032;-83
2023/07/27 14:27:32;;;;;;;2.97;1.58;;;46.10;30.00;;;;;;4943946;29;20249;-83
2023/07/27 14:30:01;;;;;;;3.20;1.60;;;46.50;29.40;;;;;;4942700;29;20047;-83
2023/07/27 14:32:27;;;;;;;1.95;1.38;;;46.60;30.40;;;;;;4943235;29;20040;-83
2023/07/27 14:34:53;;;;;;;1.88;1.75;;;46.70;29.20;;;;;;4944020;29;20043;-84
2023/07/27 14:37:21;;;;;;;2.00;1.77;;;46.40;29.10;;;;;;4943769;29;20035;-84
2023/07/27 14:39:47;;;;;;;2.30;1.60;;;46.60;28.60;;;;;;4943575;29;20038;-83
2023/07/27 14:42:13;;;;;;;3.33;1.70;;;46.70;28.70;;;;;;4943051;29;20024;-83
2023/07/27 14:44:38;;;;;;;5.78;2.00;;;46.90;28.80;;;;;;4942664;29;20119;-83
2023/07/27 14:47:04;;;;;;;1.70;1.60;;;47.00;29.10;;;;;;4944027;29;20035;-81
2023/07/27 14:49:30;;;;;;;5.30;1.67;;;47.10;28.30;;;;;;4948685;29;20026;-81
2023/07/27 14:51:56;;;;;;;2.53;1.70;;;47.00;28.40;;;;;;4945812;29;20027;-80
2023/07/27 14:54:22;;;;;;;3.65;2.00;;;46.90;28.20;;;;;;4946562;29;20079;-80
2023/07/27 14:56:48;;;;;;;1.67;1.58;;;46.20;28.90;;;;;;4946399;29;20039;-80
2023/07/27 14:59:15;;;;;;;2.42;1.98;;;46.00;29.10;;;;;;4945745;29;20118;-80
2023/07/27 15:01:40;;;;;;;3.08;1.70;;;46.00;29.10;;;;;;4945227;29;20031;-80
2023/07/27 15:04:06;;;;;;;3.08;1.70;;;46.10;29.10;;;;;;4945333;29;20095;-80
2023/07/27 15:06:32;;;;;;;2.95;1.60;;;45.80;29.40;;;;;;4945859;29;20095;-81
2023/07/27 15:09:00;;;;;;;1.50;1.40;;;44.90;29.50;;;;;;4948364;29;20109;-83
2023/07/27 15:11:26;;;;;;;6.03;1.73;;;44.50;29.20;;;;;;4940668;29;20028;-82
2023/07/27 15:13:52;;;;;;;1.10;1.00;;;43.70;31.20;;;;;;4940883;29;20140;-84
2023/07/27 15:16:18;;;;;;;1.83;1.27;;;42.20;31.30;;;;;;4937675;29;20089;-83
2023/07/27 15:18:44;;;;;;;2.20;0.90;;;41.20;31.90;;;;;;4936892;29;20032;-82
2023/07/27 15:21:10;;;;;;;1.25;1.08;;;40.10;32.60;;;;;;4937049;29;20023;-83
2023/07/27 15:23:35;;;;;;;4.20;1.42;;;38.80;33.60;;;;;;4936578;29;20027;-83
2023/07/27 15:26:03;;;;;;;1.88;1.20;;;38.30;35.60;;;;;;4935238;29;20034;-83
2023/07/27 15:28:30;;;;;;;1.38;1.20;;;37.80;35.30;;;;;;4935971;29;20039;-85
2023/07/27 15:30:57;;;;;;;3.42;1.10;;;37.30;36.00;;;;;;4937303;29;20032;-84
2023/07/27 15:33:23;;;;;;;2.00;1.10;;;36.70;37.10;;;;;;4935843;29;20039;-84
2023/07/27 15:35:49;;;;;;;1.48;0.80;;;36.40;37.80;;;;;;4937557;29;20071;-85
2023/07/27 15:43:39;;;;;;;2.13;1.30;;;35.80;37.00;;;;;;4951080;23;20142;-79
2023/07/27 15:46:05;;;;;;;;;;;35.50;37.50;;;;;;4958762;28;20032;-79
2023/07/27 15:48:35;;;;;;;3.10;1.52;;;35.20;38.80;;;;;;4959222;28;19977;-79
2023/07/27 15:51:04;;;;;;;6.70;1.30;;;35.00;39.50;;;;;;4944654;29;20091;-78
2023/07/27 15:53:30;;;;;;;2.88;1.77;;;35.10;39.80;;;;;;4944004;29;20055;-78
2023/07/27 15:55:56;;;;;;;;;;;34.90;39.60;;;;;;4987925;23;20043;-82
2023/07/27 15:58:22;;;;;;;2.72;1.48;;;34.70;43.60;;;;;;4956908;28;19918;-82
2023/07/27 16:00:55;;;;;;;7.35;1.60;;;34.60;39.10;;;;;;4956414;28;20042;-82
2023/07/27 16:03:21;;;;;;;1.77;1.55;;;34.60;41.70;;;;;;4954974;29;20031;-82
2023/07/27 16:05:47;;;;;;;1.05;0.95;;;34.30;39.60;;;;;;4955297;29;20034;-82
2023/07/27 16:08:12;;;;;;;1.85;0.98;;;34.30;40.70;;;;;;4954428;28;20027;-82
2023/07/27 16:10:42;;;;;;;1.65;1.30;;;34.30;39.90;;;;;;4953196;29;20078;-84
2023/07/27 16:13:08;;;;;;;2.58;1.10;;;34.00;39.90;;;;;;4936674;29;20039;-85
2023/07/27 16:15:34;;;;;;;;;;;33.90;39.90;;;;;;4937092;29;20035;-85
2023/07/27 16:18:00;;;;;;;1.17;0.90;;;33.80;42.60;;;;;;4970440;28;19913;-82
2023/07/27 16:20:26;;;;;;;4.80;3.40;;;33.70;40.40;;;;;;4954832;29;20043;-83
2023/07/27 16:22:52;;;;;;;5.97;4.25;;;33.60;40.80;;;;;;4955272;29;20031;-82
2023/07/27 16:25:20;;;;;;;2.10;1.90;;;33.50;40.10;;;;;;4955128;29;20054;-83
2023/07/27 16:27:46;;;;;;;5.70;2.13;;;33.40;40.90;;;;;;4956299;28;20035;-81
2023/07/27 16:30:12;;;;;;;1.33;1.10;;;33.40;42.30;;;;;;4957375;29;20031;-82
2023/07/27 16:32:38;;;;;;;1.88;1.45;;;33.20;39.50;;;;;;4956873;28;20031;-82
2023/07/27 16:35:04;;;;;;;1.70;1.30;;;33.00;39.50;;;;;;4955706;28;20039;-81
2023/07/27 16:37:30;;;;;;;8.25;1.33;;;32.90;39.40;;;;;;4958413;29;20055;-82
2023/07/27 16:39:56;;;;;;;4.45;1.40;;;32.80;40.80;;;;;;4941764;29;20036;-81
2023/07/27 16:42:22;;;;;;;1.55;1.00;;;32.80;40.70;;;;;;4958313;29;20173;-82
2023/07/27 16:44:48;;;;;;;2.63;1.20;;;32.80;40.40;;;;;;4959200;29;20035;-81
2023/07/27 16:47:15;;;;;;;3.78;2.00;;;32.70;41.50;;;;;;4957384;28;20027;-83
2023/07/27 16:49:41;;;;;;;6.20;1.48;;;32.60;41.40;;;;;;4957728;28;20033;-83
2023/07/27 16:52:07;;;;;;;2.00;1.35;;;32.70;41.00;;;;;;4962658;28;20031;-82